sensor_id;sensor_type;location;lat;lon;timestamp;pressure;altitude;pressure_sealevel;temperature;humidity
62508;BME280;48556;51.972;4.624;2022-11-15T00:00:52;100830.06;;;10.42;90.35
62508;BME280;48556;51.972;4.624;2022-11-15T00:03:24;100833.47;;;10.51;89.72
62508;BME280;48556;51.972;4.624;2022-11-15T00:05:49;100824.94;;;10.27;91.73
62508;BME280;48556;51.972;4.624;2022-11-15T00:08:16;100825.63;;;10.46;91.54
62508;BME280;48556;51.972;4.624;2022-11-15T00:10:42;100822.75;;;10.66;90.28
62508;BME280;48556;51.972;4.624;2022-11-15T00:13:09;100819.28;;;10.64;89.89
62508;BME280;48556;51.972;4.624;2022-11-15T00:15:40;100822.88;;;10.57;90.29
62508;BME280;48556;51.972;4.624;2022-11-15T00:18:10;100824.38;;;10.76;89.98
62508;BME280;48556;51.972;4.624;2022-11-15T00:20:37;100827.97;;;10.69;90.71
62508;BME280;48556;51.972;4.624;2022-11-15T00:23:06;100820.69;;;10.91;89.51
62508;BME280;48556;51.972;4.624;2022-11-15T00:25:32;100817.03;;;11.00;89.25
62508;BME280;48556;51.972;4.624;2022-11-15T00:27:59;100819.78;;;10.91;89.53
62508;BME280;48556;51.972;4.624;2022-11-15T00:30:26;100810.44;;;10.68;91.72
62508;BME280;48556;51.972;4.624;2022-11-15T00:32:51;100812.09;;;10.75;91.73
62508;BME280;48556;51.972;4.624;2022-11-15T00:35:17;100811.50;;;10.55;92.68
62508;BME280;48556;51.972;4.624;2022-11-15T00:37:43;100804.94;;;10.87;91.63
62508;BME280;48556;51.972;4.624;2022-11-15T00:40:09;100800.44;;;10.98;90.89
62508;BME280;48556;51.972;4.624;2022-11-15T00:42:35;100806.34;;;10.46;93.39
62508;BME280;48556;51.972;4.624;2022-11-15T00:45:01;100796.50;;;10.65;93.53
62508;BME280;48556;51.972;4.624;2022-11-15T00:47:27;100796.31;;;10.75;93.96
62508;BME280;48556;51.972;4.624;2022-11-15T00:49:52;100793.06;;;10.58;93.49
62508;BME280;48556;51.972;4.624;2022-11-15T00:52:18;100784.97;;;10.73;92.61
62508;BME280;48556;51.972;4.624;2022-11-15T00:54:43;100796.00;;;11.00;92.82
62508;BME280;48556;51.972;4.624;2022-11-15T00:57:09;100787.13;;;11.07;92.41
62508;BME280;48556;51.972;4.624;2022-11-15T00:59:34;100796.69;;;11.13;91.53
62508;BME280;48556;51.972;4.624;2022-11-15T01:02:00;100801.13;;;11.09;90.80
62508;BME280;48556;51.972;4.624;2022-11-15T01:04:26;100793.09;;;11.19;91.92
62508;BME280;48556;51.972;4.624;2022-11-15T01:06:52;100793.13;;;11.16;91.55
62508;BME280;48556;51.972;4.624;2022-11-15T01:09:17;100791.59;;;11.01;92.34
62508;BME280;48556;51.972;4.624;2022-11-15T01:11:43;100789.00;;;11.55;90.37
62508;BME280;48556;51.972;4.624;2022-11-15T01:14:08;100781.25;;;11.48;89.82
62508;BME280;48556;51.972;4.624;2022-11-15T01:16:37;100778.78;;;11.37;90.82
62508;BME280;48556;51.972;4.624;2022-11-15T01:19:02;100777.91;;;11.36;90.99
62508;BME280;48556;51.972;4.624;2022-11-15T01:21:28;100779.16;;;11.67;90.17
62508;BME280;48556;51.972;4.624;2022-11-15T01:23:56;100776.13;;;11.38;90.73
62508;BME280;48556;51.972;4.624;2022-11-15T01:26:23;100772.84;;;11.24;92.33
62508;BME280;48556;51.972;4.624;2022-11-15T01:28:50;100769.16;;;11.34;91.21
62508;BME280;48556;51.972;4.624;2022-11-15T01:31:18;100762.44;;;11.18;91.85
62508;BME280;48556;51.972;4.624;2022-11-15T01:33:45;100765.78;;;11.26;92.46
62508;BME280;48556;51.972;4.624;2022-11-15T01:36:16;100769.47;;;11.16;93.67
62508;BME280;48556;51.972;4.624;2022-11-15T01:38:42;100769.28;;;11.28;92.68
62508;BME280;48556;51.972;4.624;2022-11-15T01:41:20;100758.78;;;11.25;92.33
62508;BME280;48556;51.972;4.624;2022-11-15T01:43:53;100756.91;;;11.33;93.07
62508;BME280;48556;51.972;4.624;2022-11-15T01:46:31;100759.31;;;11.47;92.27
62508;BME280;48556;51.972;4.624;2022-11-15T01:49:03;100757.78;;;11.84;91.05
62508;BME280;48556;51.972;4.624;2022-11-15T01:51:33;100752.63;;;11.77;90.55
62508;BME280;48556;51.972;4.624;2022-11-15T01:54:04;100745.66;;;11.73;90.78
62508;BME280;48556;51.972;4.624;2022-11-15T01:56:39;100746.63;;;12.18;89.12
62508;BME280;48556;51.972;4.624;2022-11-15T01:59:08;100742.44;;;12.07;89.38
62508;BME280;48556;51.972;4.624;2022-11-15T02:01:35;100735.16;;;12.20;88.58
62508;BME280;48556;51.972;4.624;2022-11-15T02:04:28;100736.69;;;12.30;88.06
62508;BME280;48556;51.972;4.624;2022-11-15T02:06:53;100735.91;;;12.27;88.45
62508;BME280;48556;51.972;4.624;2022-11-15T02:09:19;100721.50;;;12.43;87.35
62508;BME280;48556;51.972;4.624;2022-11-15T02:11:47;100713.34;;;12.54;87.42
62508;BME280;48556;51.972;4.624;2022-11-15T02:14:17;100715.56;;;12.32;87.96
62508;BME280;48556;51.972;4.624;2022-11-15T02:17:17;100710.44;;;11.80;90.67
62508;BME280;48556;51.972;4.624;2022-11-15T02:20:09;100710.22;;;12.37;89.05
62508;BME280;48556;51.972;4.624;2022-11-15T02:26:21;100695.72;;;12.16;90.82
62508;BME280;48556;51.972;4.624;2022-11-15T02:28:58;100696.66;;;12.54;89.55
62508;BME280;48556;51.972;4.624;2022-11-15T02:34:27;100684.78;;;12.34;90.17
62508;BME280;48556;51.972;4.624;2022-11-15T02:42:19;100679.50;;;12.34;90.99
62508;BME280;48556;51.972;4.624;2022-11-15T02:45:09;100680.38;;;12.35;91.56
62508;BME280;48556;51.972;4.624;2022-11-15T02:47:43;100684.47;;;12.48;91.92
62508;BME280;48556;51.972;4.624;2022-11-15T02:50:13;100684.88;;;12.70;91.32
62508;BME280;48556;51.972;4.624;2022-11-15T02:52:45;100682.91;;;12.78;89.63
62508;BME280;48556;51.972;4.624;2022-11-15T02:55:33;100676.53;;;12.87;90.01
62508;BME280;48556;51.972;4.624;2022-11-15T03:00:35;100667.94;;;13.15;89.36
62508;BME280;48556;51.972;4.624;2022-11-15T03:08:50;100676.63;;;13.20;89.41
62508;BME280;48556;51.972;4.624;2022-11-15T03:11:22;100671.41;;;13.17;90.02
62508;BME280;48556;51.972;4.624;2022-11-15T03:16:42;100670.09;;;13.01;91.72
62508;BME280;48556;51.972;4.624;2022-11-15T03:19:30;100665.44;;;13.10;91.90
62508;BME280;48556;51.972;4.624;2022-11-15T03:22:01;100657.19;;;13.23;91.67
62508;BME280;48556;51.972;4.624;2022-11-15T03:24:33;100662.69;;;13.49;91.03
62508;BME280;48556;51.972;4.624;2022-11-15T03:27:02;100659.03;;;13.55;90.37
62508;BME280;48556;51.972;4.624;2022-11-15T03:29:39;100669.41;;;13.61;90.65
62508;BME280;48556;51.972;4.624;2022-11-15T03:32:13;100669.88;;;13.44;90.97
62508;BME280;48556;51.972;4.624;2022-11-15T03:35:07;100671.09;;;12.95;93.39
62508;BME280;48556;51.972;4.624;2022-11-15T03:37:41;100659.19;;;13.13;92.96
62508;BME280;48556;51.972;4.624;2022-11-15T03:40:10;100660.50;;;13.31;93.13
62508;BME280;48556;51.972;4.624;2022-11-15T03:42:38;100670.91;;;13.39;92.73
62508;BME280;48556;51.972;4.624;2022-11-15T03:45:19;100680.03;;;13.60;91.35
62508;BME280;48556;51.972;4.624;2022-11-15T03:48:00;100673.63;;;13.34;92.24
62508;BME280;48556;51.972;4.624;2022-11-15T03:50:28;100672.47;;;13.46;92.31
62508;BME280;48556;51.972;4.624;2022-11-15T03:52:55;100676.47;;;13.61;92.13
62508;BME280;48556;51.972;4.624;2022-11-15T03:55:22;100673.88;;;13.25;94.29
62508;BME280;48556;51.972;4.624;2022-11-15T03:57:51;100664.25;;;13.22;94.47
62508;BME280;48556;51.972;4.624;2022-11-15T04:00:18;100663.47;;;13.53;93.33
62508;BME280;48556;51.972;4.624;2022-11-15T04:02:44;100663.03;;;13.37;92.45
62508;BME280;48556;51.972;4.624;2022-11-15T04:05:10;100657.94;;;13.28;93.44
62508;BME280;48556;51.972;4.624;2022-11-15T04:07:35;100661.56;;;13.58;93.00
62508;BME280;48556;51.972;4.624;2022-11-15T04:10:01;100653.59;;;13.60;91.74
62508;BME280;48556;51.972;4.624;2022-11-15T04:12:35;100657.50;;;13.78;91.66
62508;BME280;48556;51.972;4.624;2022-11-15T04:15:07;100646.44;;;13.65;92.87
62508;BME280;48556;51.972;4.624;2022-11-15T04:20:06;100645.19;;;13.45;93.23
62508;BME280;48556;51.972;4.624;2022-11-15T04:22:55;100637.81;;;13.58;93.38
62508;BME280;48556;51.972;4.624;2022-11-15T04:25:41;100629.09;;;13.55;93.90
62508;BME280;48556;51.972;4.624;2022-11-15T04:28:08;100622.84;;;13.57;93.85
62508;BME280;48556;51.972;4.624;2022-11-15T04:30:34;100638.28;;;13.41;94.51
62508;BME280;48556;51.972;4.624;2022-11-15T04:32:59;100632.53;;;13.58;94.42
62508;BME280;48556;51.972;4.624;2022-11-15T04:35:25;100640.81;;;13.44;95.04
62508;BME280;48556;51.972;4.624;2022-11-15T04:37:50;100642.03;;;13.64;93.79
62508;BME280;48556;51.972;4.624;2022-11-15T04:40:16;100641.25;;;13.62;94.61
62508;BME280;48556;51.972;4.624;2022-11-15T04:42:42;100649.63;;;13.76;94.10
62508;BME280;48556;51.972;4.624;2022-11-15T04:45:10;100648.34;;;13.91;92.88
62508;BME280;48556;51.972;4.624;2022-11-15T04:47:36;100653.78;;;14.16;91.39
62508;BME280;48556;51.972;4.624;2022-11-15T04:50:02;100652.59;;;13.97;91.65
62508;BME280;48556;51.972;4.624;2022-11-15T04:52:27;100661.28;;;14.00;92.15
62508;BME280;48556;51.972;4.624;2022-11-15T04:54:53;100663.41;;;13.88;92.66
62508;BME280;48556;51.972;4.624;2022-11-15T04:57:18;100661.56;;;13.90;92.66
62508;BME280;48556;51.972;4.624;2022-11-15T04:59:44;100669.50;;;13.90;92.85
62508;BME280;48556;51.972;4.624;2022-11-15T05:02:10;100668.66;;;13.56;94.65
62508;BME280;48556;51.972;4.624;2022-11-15T05:04:35;100661.84;;;13.80;94.78
62508;BME280;48556;51.972;4.624;2022-11-15T05:07:01;100667.56;;;13.65;95.09
62508;BME280;48556;51.972;4.624;2022-11-15T05:09:27;100672.38;;;13.49;95.01
62508;BME280;48556;51.972;4.624;2022-11-15T05:11:52;100674.84;;;13.57;94.81
62508;BME280;48556;51.972;4.624;2022-11-15T05:14:18;100673.25;;;13.49;95.10
62508;BME280;48556;51.972;4.624;2022-11-15T05:16:44;100673.31;;;13.48;96.72
62508;BME280;48556;51.972;4.624;2022-11-15T05:19:09;100677.56;;;13.54;95.34
62508;BME280;48556;51.972;4.624;2022-11-15T05:21:35;100676.22;;;13.70;95.65
62508;BME280;48556;51.972;4.624;2022-11-15T05:24:01;100670.16;;;13.66;94.63
62508;BME280;48556;51.972;4.624;2022-11-15T05:26:27;100662.75;;;13.46;95.27
62508;BME280;48556;51.972;4.624;2022-11-15T05:28:57;100667.72;;;13.59;94.93
62508;BME280;48556;51.972;4.624;2022-11-15T05:31:25;100667.56;;;13.65;93.78
62508;BME280;48556;51.972;4.624;2022-11-15T05:33:52;100659.53;;;13.68;93.79
62508;BME280;48556;51.972;4.624;2022-11-15T05:36:33;100653.81;;;13.52;94.76
62508;BME280;48556;51.972;4.624;2022-11-15T05:39:01;100653.28;;;13.72;93.52
62508;BME280;48556;51.972;4.624;2022-11-15T05:41:33;100661.78;;;13.50;94.72
62508;BME280;48556;51.972;4.624;2022-11-15T05:44:04;100660.59;;;13.62;93.19
62508;BME280;48556;51.972;4.624;2022-11-15T05:46:33;100661.66;;;13.87;92.76
62508;BME280;48556;51.972;4.624;2022-11-15T05:49:00;100667.34;;;14.04;91.52
62508;BME280;48556;51.972;4.624;2022-11-15T05:51:28;100667.91;;;14.15;90.30
62508;BME280;48556;51.972;4.624;2022-11-15T05:53:56;100663.97;;;14.29;89.73
62508;BME280;48556;51.972;4.624;2022-11-15T05:56:24;100658.66;;;14.29;89.13
62508;BME280;48556;51.972;4.624;2022-11-15T05:58:52;100668.84;;;14.13;89.63
62508;BME280;48556;51.972;4.624;2022-11-15T06:01:19;100669.44;;;14.23;89.46
62508;BME280;48556;51.972;4.624;2022-11-15T06:03:45;100670.44;;;14.18;88.89
62508;BME280;48556;51.972;4.624;2022-11-15T06:06:10;100674.09;;;14.14;89.17
62508;BME280;48556;51.972;4.624;2022-11-15T06:08:35;100671.63;;;14.08;89.08
62508;BME280;48556;51.972;4.624;2022-11-15T06:11:06;100671.88;;;13.99;89.81
62508;BME280;48556;51.972;4.624;2022-11-15T06:13:33;100682.69;;;13.91;90.17
62508;BME280;48556;51.972;4.624;2022-11-15T06:15:59;100689.03;;;13.84;90.95
62508;BME280;48556;51.972;4.624;2022-11-15T06:18:25;100684.50;;;13.89;89.68
62508;BME280;48556;51.972;4.624;2022-11-15T06:20:51;100688.06;;;14.19;88.07
62508;BME280;48556;51.972;4.624;2022-11-15T06:23:16;100692.09;;;14.01;88.03
62508;BME280;48556;51.972;4.624;2022-11-15T06:25:42;100697.69;;;13.91;88.17
62508;BME280;48556;51.972;4.624;2022-11-15T06:28:07;100702.72;;;13.67;89.18
62508;BME280;48556;51.972;4.624;2022-11-15T06:30:33;100697.47;;;13.65;88.90
62508;BME280;48556;51.972;4.624;2022-11-15T06:33:03;100701.72;;;13.71;88.06
62508;BME280;48556;51.972;4.624;2022-11-15T06:35:30;100696.06;;;13.54;88.03
62508;BME280;48556;51.972;4.624;2022-11-15T06:38:06;100697.19;;;13.76;87.60
62508;BME280;48556;51.972;4.624;2022-11-15T06:40:34;100693.28;;;13.90;86.82
62508;BME280;48556;51.972;4.624;2022-11-15T06:43:00;100689.63;;;13.95;86.08
62508;BME280;48556;51.972;4.624;2022-11-15T06:45:26;100691.84;;;14.09;85.18
62508;BME280;48556;51.972;4.624;2022-11-15T06:47:53;100705.00;;;14.12;85.22
62508;BME280;48556;51.972;4.624;2022-11-15T06:50:18;100702.66;;;14.01;85.73
62508;BME280;48556;51.972;4.624;2022-11-15T06:52:44;100703.53;;;14.02;85.57
62508;BME280;48556;51.972;4.624;2022-11-15T06:55:10;100711.22;;;13.78;86.81
62508;BME280;48556;51.972;4.624;2022-11-15T06:57:36;100718.25;;;13.79;86.32
62508;BME280;48556;51.972;4.624;2022-11-15T07:00:04;100714.22;;;13.64;87.56
62508;BME280;48556;51.972;4.624;2022-11-15T07:02:30;100721.72;;;13.81;86.47
62508;BME280;48556;51.972;4.624;2022-11-15T07:04:56;100714.84;;;13.74;86.67
62508;BME280;48556;51.972;4.624;2022-11-15T07:07:22;100709.13;;;13.58;86.70
62508;BME280;48556;51.972;4.624;2022-11-15T07:09:47;100700.56;;;13.48;88.07
62508;BME280;48556;51.972;4.624;2022-11-15T07:12:13;100699.88;;;13.75;86.54
62508;BME280;48556;51.972;4.624;2022-11-15T07:14:39;100712.97;;;13.79;86.66
62508;BME280;48556;51.972;4.624;2022-11-15T07:17:05;100701.25;;;13.57;87.37
62508;BME280;48556;51.972;4.624;2022-11-15T07:19:31;100703.44;;;13.74;86.79
62508;BME280;48556;51.972;4.624;2022-11-15T07:21:56;100703.31;;;13.45;87.00
62508;BME280;48556;51.972;4.624;2022-11-15T07:24:22;100711.28;;;13.44;86.29
62508;BME280;48556;51.972;4.624;2022-11-15T07:26:47;100718.88;;;13.55;85.99
62508;BME280;48556;51.972;4.624;2022-11-15T07:29:13;100712.22;;;13.41;85.95
62508;BME280;48556;51.972;4.624;2022-11-15T07:31:39;100703.34;;;13.42;85.80
62508;BME280;48556;51.972;4.624;2022-11-15T07:34:06;100706.75;;;13.47;86.26
62508;BME280;48556;51.972;4.624;2022-11-15T07:36:31;100700.91;;;13.69;84.21
62508;BME280;48556;51.972;4.624;2022-11-15T07:38:57;100700.66;;;13.78;83.21
62508;BME280;48556;51.972;4.624;2022-11-15T07:41:22;100701.16;;;13.60;84.53
62508;BME280;48556;51.972;4.624;2022-11-15T07:43:51;100700.31;;;13.91;82.88
62508;BME280;48556;51.972;4.624;2022-11-15T07:46:16;100715.44;;;13.53;83.64
62508;BME280;48556;51.972;4.624;2022-11-15T07:48:42;100709.09;;;13.60;83.62
62508;BME280;48556;51.972;4.624;2022-11-15T07:51:11;100704.69;;;13.92;82.25
62508;BME280;48556;51.972;4.624;2022-11-15T07:53:37;100708.94;;;13.64;82.42
62508;BME280;48556;51.972;4.624;2022-11-15T07:56:08;100708.28;;;13.56;82.87
62508;BME280;48556;51.972;4.624;2022-11-15T07:58:34;100693.19;;;13.61;82.85
62508;BME280;48556;51.972;4.624;2022-11-15T08:01:04;100686.78;;;13.70;82.45
62508;BME280;48556;51.972;4.624;2022-11-15T08:03:30;100689.13;;;13.49;84.25
62508;BME280;48556;51.972;4.624;2022-11-15T08:05:57;100685.41;;;13.57;83.87
62508;BME280;48556;51.972;4.624;2022-11-15T08:08:22;100688.28;;;13.80;82.77
62508;BME280;48556;51.972;4.624;2022-11-15T08:10:48;100675.53;;;13.63;83.08
62508;BME280;48556;51.972;4.624;2022-11-15T08:13:13;100682.72;;;13.58;83.64
62508;BME280;48556;51.972;4.624;2022-11-15T08:15:39;100673.25;;;13.49;85.06
62508;BME280;48556;51.972;4.624;2022-11-15T08:18:13;100683.16;;;13.41;84.98
62508;BME280;48556;51.972;4.624;2022-11-15T08:20:40;100667.41;;;13.37;85.53
62508;BME280;48556;51.972;4.624;2022-11-15T08:23:06;100670.09;;;13.35;85.42
62508;BME280;48556;51.972;4.624;2022-11-15T08:25:34;100675.16;;;13.77;83.82
62508;BME280;48556;51.972;4.624;2022-11-15T08:28:05;100669.47;;;13.60;84.26
62508;BME280;48556;51.972;4.624;2022-11-15T08:30:35;100658.41;;;13.09;87.15
62508;BME280;48556;51.972;4.624;2022-11-15T08:33:02;100666.13;;;12.82;89.41
62508;BME280;48556;51.972;4.624;2022-11-15T08:35:28;100678.09;;;12.96;88.39
62508;BME280;48556;51.972;4.624;2022-11-15T08:37:54;100661.88;;;13.11;87.87
62508;BME280;48556;51.972;4.624;2022-11-15T08:40:20;100658.50;;;13.06;88.90
62508;BME280;48556;51.972;4.624;2022-11-15T08:42:46;100658.50;;;13.06;89.28
62508;BME280;48556;51.972;4.624;2022-11-15T08:45:12;100651.34;;;12.74;89.74
62508;BME280;48556;51.972;4.624;2022-11-15T08:47:37;100652.38;;;12.68;90.49
62508;BME280;48556;51.972;4.624;2022-11-15T08:50:04;100654.81;;;12.38;91.96
62508;BME280;48556;51.972;4.624;2022-11-15T08:52:29;100656.06;;;12.61;92.19
62508;BME280;48556;51.972;4.624;2022-11-15T08:54:55;100656.09;;;12.59;92.41
62508;BME280;48556;51.972;4.624;2022-11-15T08:57:20;100634.59;;;12.76;91.04
62508;BME280;48556;51.972;4.624;2022-11-15T08:59:46;100650.53;;;12.33;92.96
62508;BME280;48556;51.972;4.624;2022-11-15T09:02:13;100643.16;;;12.48;91.48
62508;BME280;48556;51.972;4.624;2022-11-15T09:04:41;100641.06;;;12.63;91.45
62508;BME280;48556;51.972;4.624;2022-11-15T09:07:08;100648.31;;;12.12;93.02
62508;BME280;48556;51.972;4.624;2022-11-15T09:09:33;100652.28;;;12.32;92.98
62508;BME280;48556;51.972;4.624;2022-11-15T09:11:59;100651.66;;;12.60;90.92
62508;BME280;48556;51.972;4.624;2022-11-15T09:14:25;100642.44;;;12.40;91.36
62508;BME280;48556;51.972;4.624;2022-11-15T09:16:50;100645.81;;;12.47;90.94
62508;BME280;48556;51.972;4.624;2022-11-15T09:19:16;100653.56;;;12.92;88.59
62508;BME280;48556;51.972;4.624;2022-11-15T09:21:41;100645.97;;;12.78;89.21
62508;BME280;48556;51.972;4.624;2022-11-15T09:24:07;100647.09;;;12.68;89.11
62508;BME280;48556;51.972;4.624;2022-11-15T09:26:33;100639.34;;;12.98;88.03
62508;BME280;48556;51.972;4.624;2022-11-15T09:29:00;100645.00;;;12.82;88.30
62508;BME280;48556;51.972;4.624;2022-11-15T09:31:27;100648.28;;;12.92;88.21
62508;BME280;48556;51.972;4.624;2022-11-15T09:33:52;100648.66;;;12.77;88.11
62508;BME280;48556;51.972;4.624;2022-11-15T09:36:18;100654.66;;;12.44;89.98
62508;BME280;48556;51.972;4.624;2022-11-15T09:38:43;100647.00;;;12.73;89.68
62508;BME280;48556;51.972;4.624;2022-11-15T09:49:00;100645.66;;;12.92;87.10
62508;BME280;48556;51.972;4.624;2022-11-15T09:51:36;100635.94;;;12.93;85.96
62508;BME280;48556;51.972;4.624;2022-11-15T09:56:47;100622.53;;;13.02;84.49
62508;BME280;48556;51.972;4.624;2022-11-15T10:05:20;100615.72;;;13.61;81.38
62508;BME280;48556;51.972;4.624;2022-11-15T10:10:57;100608.22;;;13.11;82.69
62508;BME280;48556;51.972;4.624;2022-11-15T10:13:31;100615.38;;;13.06;83.15
62508;BME280;48556;51.972;4.624;2022-11-15T10:22:04;100610.31;;;13.31;82.04
62508;BME280;48556;51.972;4.624;2022-11-15T10:24:43;100599.72;;;13.32;82.62
62508;BME280;48556;51.972;4.624;2022-11-15T10:27:12;100601.00;;;13.18;83.23
62508;BME280;48556;51.972;4.624;2022-11-15T10:29:50;100591.72;;;13.03;83.77
62508;BME280;48556;51.972;4.624;2022-11-15T10:32:20;100581.13;;;13.04;83.87
62508;BME280;48556;51.972;4.624;2022-11-15T10:34:48;100589.00;;;13.06;83.30
62508;BME280;48556;51.972;4.624;2022-11-15T10:37:14;100570.94;;;13.23;81.40
62508;BME280;48556;51.972;4.624;2022-11-15T10:39:39;100568.44;;;13.19;82.19
62508;BME280;48556;51.972;4.624;2022-11-15T10:42:17;100582.66;;;12.78;83.34
62508;BME280;48556;51.972;4.624;2022-11-15T10:44:44;100561.00;;;13.00;82.94
62508;BME280;48556;51.972;4.624;2022-11-15T10:47:29;100554.56;;;13.10;81.75
62508;BME280;48556;51.972;4.624;2022-11-15T10:49:59;100557.94;;;13.15;82.11
62508;BME280;48556;51.972;4.624;2022-11-15T10:52:26;100563.09;;;13.53;80.38
62508;BME280;48556;51.972;4.624;2022-11-15T10:54:54;100561.34;;;13.54;80.37
62508;BME280;48556;51.972;4.624;2022-11-15T10:57:28;100565.69;;;13.55;79.69
62508;BME280;48556;51.972;4.624;2022-11-15T11:05:33;100556.31;;;13.74;79.14
62508;BME280;48556;51.972;4.624;2022-11-15T11:08:02;100547.19;;;13.86;77.80
62508;BME280;48556;51.972;4.624;2022-11-15T11:10:28;100540.00;;;13.90;77.11
62508;BME280;48556;51.972;4.624;2022-11-15T11:12:53;100538.56;;;14.08;76.92
62508;BME280;48556;51.972;4.624;2022-11-15T11:15:19;100530.31;;;13.90;77.02
62508;BME280;48556;51.972;4.624;2022-11-15T11:18:02;100525.94;;;13.89;76.78
62508;BME280;48556;51.972;4.624;2022-11-15T11:20:44;100522.97;;;14.00;75.36
62508;BME280;48556;51.972;4.624;2022-11-15T11:28:58;100493.97;;;14.52;73.74
62508;BME280;48556;51.972;4.624;2022-11-15T11:32:03;100500.06;;;14.27;74.09
62508;BME280;48556;51.972;4.624;2022-11-15T11:34:40;100494.41;;;14.38;73.45
62508;BME280;48556;51.972;4.624;2022-11-15T11:37:44;100485.19;;;14.25;74.19
62508;BME280;48556;51.972;4.624;2022-11-15T11:48:45;100469.72;;;14.39;72.75
62508;BME280;48556;51.972;4.624;2022-11-15T11:51:28;100469.00;;;14.34;72.82
62508;BME280;48556;51.972;4.624;2022-11-15T11:54:20;100449.69;;;14.32;72.31
62508;BME280;48556;51.972;4.624;2022-11-15T11:56:48;100448.09;;;14.26;72.96
62508;BME280;48556;51.972;4.624;2022-11-15T12:01:51;100443.47;;;14.06;72.97
62508;BME280;48556;51.972;4.624;2022-11-15T12:04:40;100440.16;;;14.26;72.90
62508;BME280;48556;51.972;4.624;2022-11-15T12:07:27;100440.72;;;14.36;72.58
62508;BME280;48556;51.972;4.624;2022-11-15T12:09:58;100432.06;;;14.31;72.02
62508;BME280;48556;51.972;4.624;2022-11-15T12:12:39;100420.94;;;14.73;70.83
62508;BME280;48556;51.972;4.624;2022-11-15T12:15:16;100424.66;;;14.93;69.52
62508;BME280;48556;51.972;4.624;2022-11-15T12:17:45;100409.69;;;14.68;69.51
62508;BME280;48556;51.972;4.624;2022-11-15T12:20:20;100396.56;;;15.12;68.76
62508;BME280;48556;51.972;4.624;2022-11-15T12:22:52;100399.19;;;15.36;67.91
62508;BME280;48556;51.972;4.624;2022-11-15T12:25:42;100394.50;;;15.20;68.29
62508;BME280;48556;51.972;4.624;2022-11-15T12:28:17;100387.31;;;15.24;68.41
62508;BME280;48556;51.972;4.624;2022-11-15T12:30:57;100391.69;;;15.47;66.90
62508;BME280;48556;51.972;4.624;2022-11-15T12:33:36;100382.03;;;15.91;65.15
62508;BME280;48556;51.972;4.624;2022-11-15T12:36:08;100383.97;;;15.87;64.86
62508;BME280;48556;51.972;4.624;2022-11-15T12:41:16;100367.22;;;16.88;60.15
62508;BME280;48556;51.972;4.624;2022-11-15T12:43:44;100372.66;;;17.24;58.46
62508;BME280;48556;51.972;4.624;2022-11-15T12:50:10;100368.31;;;16.84;58.90
62508;BME280;48556;51.972;4.624;2022-11-15T12:52:06;100355.97;;;16.43;59.32
62508;BME280;48556;51.972;4.624;2022-11-15T13:02:39;100343.44;;;15.61;62.25
62508;BME280;48556;51.972;4.624;2022-11-15T13:05:55;100333.53;;;15.66;61.89
62508;BME280;48556;51.972;4.624;2022-11-15T13:08:44;100335.97;;;15.04;63.91
62508;BME280;48556;51.972;4.624;2022-11-15T13:11:44;100332.94;;;14.92;64.86
62508;BME280;48556;51.972;4.624;2022-11-15T13:22:21;100309.13;;;15.80;60.99
62508;BME280;48556;51.972;4.624;2022-11-15T13:25:16;100308.78;;;15.23;63.03
62508;BME280;48556;51.972;4.624;2022-11-15T13:27:47;100303.78;;;15.15;62.46
62508;BME280;48556;51.972;4.624;2022-11-15T13:30:23;100303.34;;;14.80;63.52
62508;BME280;48556;51.972;4.624;2022-11-15T13:32:51;100299.38;;;14.92;62.77
62508;BME280;48556;51.972;4.624;2022-11-15T13:35:27;100290.59;;;14.68;63.78
62508;BME280;48556;51.972;4.624;2022-11-15T13:37:55;100282.28;;;15.01;62.89
62508;BME280;48556;51.972;4.624;2022-11-15T13:40:28;100290.38;;;14.49;64.56
62508;BME280;48556;51.972;4.624;2022-11-15T13:42:57;100266.88;;;14.89;63.71
62508;BME280;48556;51.972;4.624;2022-11-15T13:45:24;100275.09;;;14.57;63.05
62508;BME280;48556;51.972;4.624;2022-11-15T13:47:57;100266.06;;;14.39;63.97
62508;BME280;48556;51.972;4.624;2022-11-15T13:50:31;100262.31;;;14.45;63.89
62508;BME280;48556;51.972;4.624;2022-11-15T13:53:02;100259.53;;;14.24;64.24
62508;BME280;48556;51.972;4.624;2022-11-15T13:55:31;100253.19;;;14.77;63.35
62508;BME280;48556;51.972;4.624;2022-11-15T13:58:01;100249.59;;;14.31;65.10
62508;BME280;48556;51.972;4.624;2022-11-15T14:00:36;100247.25;;;14.47;64.64
62508;BME280;48556;51.972;4.624;2022-11-15T14:05:42;100227.88;;;14.46;64.85
62508;BME280;48556;51.972;4.624;2022-11-15T14:08:23;100223.03;;;14.34;64.91
62508;BME280;48556;51.972;4.624;2022-11-15T14:11:13;100218.41;;;14.41;65.26
62508;BME280;48556;51.972;4.624;2022-11-15T14:13:39;100208.44;;;14.47;64.74
62508;BME280;48556;51.972;4.624;2022-11-15T14:16:18;100206.19;;;14.13;65.98
62508;BME280;48556;51.972;4.624;2022-11-15T14:18:50;100200.44;;;14.01;66.70
62508;BME280;48556;51.972;4.624;2022-11-15T14:21:17;100198.47;;;14.32;66.13
62508;BME280;48556;51.972;4.624;2022-11-15T14:23:44;100185.91;;;14.37;65.33
62508;BME280;48556;51.972;4.624;2022-11-15T14:26:33;100190.78;;;14.48;65.40
62508;BME280;48556;51.972;4.624;2022-11-15T14:31:49;100180.97;;;14.75;64.96
62508;BME280;48556;51.972;4.624;2022-11-15T14:34:14;100176.72;;;14.71;64.75
62508;BME280;48556;51.972;4.624;2022-11-15T14:36:40;100175.22;;;14.64;65.69
62508;BME280;48556;51.972;4.624;2022-11-15T14:39:05;100173.19;;;14.47;66.28
62508;BME280;48556;51.972;4.624;2022-11-15T14:41:35;100162.19;;;14.58;65.91
62508;BME280;48556;51.972;4.624;2022-11-15T14:44:05;100164.13;;;14.54;66.42
62508;BME280;48556;51.972;4.624;2022-11-15T14:46:31;100163.16;;;14.55;66.97